sensor_id;sensor_type;location;lat;lon;timestamp;P1;durP1;ratioP1;P2;durP2;ratioP2
39860;SDS011;25529;49.346;20.886;2024-01-10T00:00:49;233.93;;;90.23;;
39860;SDS011;25529;49.346;20.886;2024-01-10T00:03:14;229.77;;;90.70;;
39860;SDS011;25529;49.346;20.886;2024-01-10T00:05:39;239.70;;;98.17;;
39860;SDS011;25529;49.346;20.886;2024-01-10T00:08:05;227.23;;;92.77;;
39860;SDS011;25529;49.346;20.886;2024-01-10T00:10:32;237.33;;;96.33;;
39860;SDS011;25529;49.346;20.886;2024-01-10T00:12:57;247.43;;;99.33;;
39860;SDS011;25529;49.346;20.886;2024-01-10T00:15:22;254.13;;;99.90;;
39860;SDS011;25529;49.346;20.886;2024-01-10T00:17:48;257.93;;;98.50;;
39860;SDS011;25529;49.346;20.886;2024-01-10T00:20:13;254.60;;;100.03;;
39860;SDS011;25529;49.346;20.886;2024-01-10T00:22:39;238.00;;;93.97;;
39860;SDS011;25529;49.346;20.886;2024-01-10T00:25:05;234.07;;;93.00;;
39860;SDS011;25529;49.346;20.886;2024-01-10T00:27:31;239.83;;;97.47;;
39860;SDS011;25529;49.346;20.886;2024-01-10T00:29:56;238.30;;;93.97;;
39860;SDS011;25529;49.346;20.886;2024-01-10T00:32:22;209.93;;;88.77;;
39860;SDS011;25529;49.346;20.886;2024-01-10T00:34:47;219.27;;;85.93;;
39860;SDS011;25529;49.346;20.886;2024-01-10T00:37:13;210.83;;;84.23;;
39860;SDS011;25529;49.346;20.886;2024-01-10T00:39:38;216.70;;;89.10;;
39860;SDS011;25529;49.346;20.886;2024-01-10T00:42:04;227.03;;;85.87;;
39860;SDS011;25529;49.346;20.886;2024-01-10T00:44:29;217.03;;;84.73;;
39860;SDS011;25529;49.346;20.886;2024-01-10T00:46:54;231.40;;;88.83;;
39860;SDS011;25529;49.346;20.886;2024-01-10T00:49:20;222.30;;;88.53;;
39860;SDS011;25529;49.346;20.886;2024-01-10T00:51:45;219.27;;;92.70;;
39860;SDS011;25529;49.346;20.886;2024-01-10T00:54:11;226.63;;;91.23;;
39860;SDS011;25529;49.346;20.886;2024-01-10T00:56:37;222.10;;;90.80;;
39860;SDS011;25529;49.346;20.886;2024-01-10T00:59:02;220.70;;;89.27;;
39860;SDS011;25529;49.346;20.886;2024-01-10T01:01:28;202.70;;;84.67;;
39860;SDS011;25529;49.346;20.886;2024-01-10T01:03:53;209.90;;;81.00;;
39860;SDS011;25529;49.346;20.886;2024-01-10T01:06:18;163.07;;;67.13;;
39860;SDS011;25529;49.346;20.886;2024-01-10T01:08:43;163.93;;;63.50;;
39860;SDS011;25529;49.346;20.886;2024-01-10T01:11:10;165.97;;;66.77;;
39860;SDS011;25529;49.346;20.886;2024-01-10T01:13:35;181.60;;;72.00;;
39860;SDS011;25529;49.346;20.886;2024-01-10T01:16:00;185.73;;;73.63;;
39860;SDS011;25529;49.346;20.886;2024-01-10T01:18:26;196.97;;;76.97;;
39860;SDS011;25529;49.346;20.886;2024-01-10T01:20:51;208.60;;;79.47;;
39860;SDS011;25529;49.346;20.886;2024-01-10T01:23:17;183.47;;;71.60;;
39860;SDS011;25529;49.346;20.886;2024-01-10T01:25:43;164.90;;;63.83;;
39860;SDS011;25529;49.346;20.886;2024-01-10T01:28:09;169.73;;;65.47;;
39860;SDS011;25529;49.346;20.886;2024-01-10T01:30:34;167.80;;;68.17;;
39860;SDS011;25529;49.346;20.886;2024-01-10T01:32:59;167.07;;;67.20;;
39860;SDS011;25529;49.346;20.886;2024-01-10T01:35:25;164.67;;;62.93;;
39860;SDS011;25529;49.346;20.886;2024-01-10T01:37:50;159.97;;;64.53;;
39860;SDS011;25529;49.346;20.886;2024-01-10T01:40:17;173.10;;;65.17;;
39860;SDS011;25529;49.346;20.886;2024-01-10T01:42:44;158.07;;;64.00;;
39860;SDS011;25529;49.346;20.886;2024-01-10T01:45:09;167.87;;;65.47;;
39860;SDS011;25529;49.346;20.886;2024-01-10T01:47:35;161.00;;;65.57;;
39860;SDS011;25529;49.346;20.886;2024-01-10T01:50:00;162.37;;;63.70;;
39860;SDS011;25529;49.346;20.886;2024-01-10T01:52:27;139.73;;;56.60;;
39860;SDS011;25529;49.346;20.886;2024-01-10T01:54:54;139.73;;;56.93;;
39860;SDS011;25529;49.346;20.886;2024-01-10T01:57:19;152.60;;;59.10;;
39860;SDS011;25529;49.346;20.886;2024-01-10T01:59:45;145.93;;;57.63;;
39860;SDS011;25529;49.346;20.886;2024-01-10T02:02:10;137.10;;;53.83;;
39860;SDS011;25529;49.346;20.886;2024-01-10T02:04:36;147.37;;;57.77;;
39860;SDS011;25529;49.346;20.886;2024-01-10T02:07:01;139.93;;;55.97;;
39860;SDS011;25529;49.346;20.886;2024-01-10T02:09:27;138.07;;;56.77;;
39860;SDS011;25529;49.346;20.886;2024-01-10T02:11:52;151.80;;;60.63;;
39860;SDS011;25529;49.346;20.886;2024-01-10T02:14:18;159.37;;;64.40;;
39860;SDS011;25529;49.346;20.886;2024-01-10T02:16:43;161.23;;;63.07;;
39860;SDS011;25529;49.346;20.886;2024-01-10T02:19:21;172.00;;;68.50;;
39860;SDS011;25529;49.346;20.886;2024-01-10T02:21:47;158.67;;;63.67;;
39860;SDS011;25529;49.346;20.886;2024-01-10T02:24:12;169.07;;;64.77;;
39860;SDS011;25529;49.346;20.886;2024-01-10T02:26:38;153.67;;;65.23;;
39860;SDS011;25529;49.346;20.886;2024-01-10T02:29:03;153.70;;;62.10;;
39860;SDS011;25529;49.346;20.886;2024-01-10T02:31:29;133.97;;;56.83;;
39860;SDS011;25529;49.346;20.886;2024-01-10T02:33:54;144.63;;;57.03;;
39860;SDS011;25529;49.346;20.886;2024-01-10T02:36:19;142.17;;;58.63;;
39860;SDS011;25529;49.346;20.886;2024-01-10T02:38:45;143.63;;;56.27;;
39860;SDS011;25529;49.346;20.886;2024-01-10T02:41:10;130.13;;;53.43;;
39860;SDS011;25529;49.346;20.886;2024-01-10T02:43:35;125.17;;;51.90;;
39860;SDS011;25529;49.346;20.886;2024-01-10T02:46:01;122.10;;;48.07;;
39860;SDS011;25529;49.346;20.886;2024-01-10T02:48:26;127.23;;;47.77;;
39860;SDS011;25529;49.346;20.886;2024-01-10T02:50:51;139.03;;;54.63;;
39860;SDS011;25529;49.346;20.886;2024-01-10T02:53:19;131.40;;;54.07;;
39860;SDS011;25529;49.346;20.886;2024-01-10T02:55:44;141.30;;;56.37;;
39860;SDS011;25529;49.346;20.886;2024-01-10T02:58:11;137.33;;;55.40;;
39860;SDS011;25529;49.346;20.886;2024-01-10T03:00:37;147.27;;;59.40;;
39860;SDS011;25529;49.346;20.886;2024-01-10T03:03:02;147.10;;;59.53;;
39860;SDS011;25529;49.346;20.886;2024-01-10T03:05:28;140.93;;;57.77;;
39860;SDS011;25529;49.346;20.886;2024-01-10T03:07:53;148.90;;;55.93;;
39860;SDS011;25529;49.346;20.886;2024-01-10T03:10:20;156.63;;;58.47;;
39860;SDS011;25529;49.346;20.886;2024-01-10T03:12:45;140.23;;;55.33;;
39860;SDS011;25529;49.346;20.886;2024-01-10T03:15:11;155.53;;;57.00;;
39860;SDS011;25529;49.346;20.886;2024-01-10T03:17:36;140.97;;;54.63;;
39860;SDS011;25529;49.346;20.886;2024-01-10T03:20:02;134.50;;;50.83;;
39860;SDS011;25529;49.346;20.886;2024-01-10T03:22:29;137.33;;;53.90;;
39860;SDS011;25529;49.346;20.886;2024-01-10T03:24:55;123.13;;;49.00;;
39860;SDS011;25529;49.346;20.886;2024-01-10T03:27:21;129.30;;;48.97;;
39860;SDS011;25529;49.346;20.886;2024-01-10T03:29:46;121.80;;;47.17;;
39860;SDS011;25529;49.346;20.886;2024-01-10T03:32:11;122.73;;;50.00;;
39860;SDS011;25529;49.346;20.886;2024-01-10T03:34:36;123.83;;;48.73;;
39860;SDS011;25529;49.346;20.886;2024-01-10T03:37:02;131.40;;;49.73;;
39860;SDS011;25529;49.346;20.886;2024-01-10T03:39:27;118.57;;;45.73;;
39860;SDS011;25529;49.346;20.886;2024-01-10T03:41:52;112.37;;;44.00;;
39860;SDS011;25529;49.346;20.886;2024-01-10T03:44:18;111.87;;;43.23;;
39860;SDS011;25529;49.346;20.886;2024-01-10T03:46:43;117.37;;;42.80;;
39860;SDS011;25529;49.346;20.886;2024-01-10T03:49:08;121.13;;;44.03;;
39860;SDS011;25529;49.346;20.886;2024-01-10T03:51:34;118.87;;;42.53;;
39860;SDS011;25529;49.346;20.886;2024-01-10T03:53:59;113.90;;;43.23;;
39860;SDS011;25529;49.346;20.886;2024-01-10T03:56:25;119.67;;;46.10;;
39860;SDS011;25529;49.346;20.886;2024-01-10T03:58:51;116.73;;;45.93;;
39860;SDS011;25529;49.346;20.886;2024-01-10T04:01:16;120.40;;;48.10;;
39860;SDS011;25529;49.346;20.886;2024-01-10T04:03:42;121.07;;;46.80;;
39860;SDS011;25529;49.346;20.886;2024-01-10T04:06:09;123.27;;;49.70;;
39860;SDS011;25529;49.346;20.886;2024-01-10T04:08:34;127.77;;;49.10;;
39860;SDS011;25529;49.346;20.886;2024-01-10T04:11:00;124.53;;;51.77;;
39860;SDS011;25529;49.346;20.886;2024-01-10T04:13:28;130.07;;;51.37;;
39860;SDS011;25529;49.346;20.886;2024-01-10T04:15:53;123.93;;;47.73;;
39860;SDS011;25529;49.346;20.886;2024-01-10T04:18:18;115.37;;;46.20;;
39860;SDS011;25529;49.346;20.886;2024-01-10T04:20:44;128.93;;;47.30;;
39860;SDS011;25529;49.346;20.886;2024-01-10T04:23:09;121.40;;;50.87;;
39860;SDS011;25529;49.346;20.886;2024-01-10T04:25:36;125.30;;;50.33;;
39860;SDS011;25529;49.346;20.886;2024-01-10T04:28:01;121.30;;;47.93;;
39860;SDS011;25529;49.346;20.886;2024-01-10T04:30:27;122.50;;;47.40;;
39860;SDS011;25529;49.346;20.886;2024-01-10T04:32:52;123.40;;;48.67;;
39860;SDS011;25529;49.346;20.886;2024-01-10T04:35:17;122.33;;;47.67;;
39860;SDS011;25529;49.346;20.886;2024-01-10T04:37:43;132.27;;;48.03;;
39860;SDS011;25529;49.346;20.886;2024-01-10T04:40:09;122.70;;;46.73;;
39860;SDS011;25529;49.346;20.886;2024-01-10T04:42:35;121.70;;;46.57;;
39860;SDS011;25529;49.346;20.886;2024-01-10T04:45:00;122.43;;;48.67;;
39860;SDS011;25529;49.346;20.886;2024-01-10T04:47:26;134.20;;;48.67;;
39860;SDS011;25529;49.346;20.886;2024-01-10T04:49:51;123.07;;;48.83;;
39860;SDS011;25529;49.346;20.886;2024-01-10T04:52:17;115.30;;;46.60;;
39860;SDS011;25529;49.346;20.886;2024-01-10T04:54:43;122.20;;;47.07;;
39860;SDS011;25529;49.346;20.886;2024-01-10T04:57:08;119.33;;;47.50;;
39860;SDS011;25529;49.346;20.886;2024-01-10T04:59:34;116.10;;;43.30;;
39860;SDS011;25529;49.346;20.886;2024-01-10T05:01:59;121.40;;;45.60;;
39860;SDS011;25529;49.346;20.886;2024-01-10T05:04:25;110.57;;;44.67;;
39860;SDS011;25529;49.346;20.886;2024-01-10T05:06:50;113.60;;;46.10;;
39860;SDS011;25529;49.346;20.886;2024-01-10T05:09:18;109.43;;;42.40;;
39860;SDS011;25529;49.346;20.886;2024-01-10T05:11:43;106.33;;;42.10;;
39860;SDS011;25529;49.346;20.886;2024-01-10T05:14:12;106.23;;;40.03;;
39860;SDS011;25529;49.346;20.886;2024-01-10T05:16:37;112.17;;;44.07;;
39860;SDS011;25529;49.346;20.886;2024-01-10T05:19:02;126.43;;;47.70;;
39860;SDS011;25529;49.346;20.886;2024-01-10T05:21:29;123.80;;;46.53;;
39860;SDS011;25529;49.346;20.886;2024-01-10T05:23:55;110.27;;;44.13;;
39860;SDS011;25529;49.346;20.886;2024-01-10T05:26:20;118.07;;;45.33;;
39860;SDS011;25529;49.346;20.886;2024-01-10T05:28:46;119.30;;;44.13;;
39860;SDS011;25529;49.346;20.886;2024-01-10T05:31:11;114.70;;;42.93;;
39860;SDS011;25529;49.346;20.886;2024-01-10T05:33:36;119.40;;;45.13;;
39860;SDS011;25529;49.346;20.886;2024-01-10T05:36:02;115.80;;;46.87;;
39860;SDS011;25529;49.346;20.886;2024-01-10T05:38:27;113.13;;;46.07;;
39860;SDS011;25529;49.346;20.886;2024-01-10T05:40:53;120.70;;;48.70;;
39860;SDS011;25529;49.346;20.886;2024-01-10T05:43:18;112.87;;;45.33;;
39860;SDS011;25529;49.346;20.886;2024-01-10T05:45:43;115.90;;;46.30;;
39860;SDS011;25529;49.346;20.886;2024-01-10T05:48:09;118.20;;;45.40;;
39860;SDS011;25529;49.346;20.886;2024-01-10T05:50:34;105.37;;;42.30;;
39860;SDS011;25529;49.346;20.886;2024-01-10T05:53:00;108.23;;;41.00;;
39860;SDS011;25529;49.346;20.886;2024-01-10T05:55:26;97.87;;;39.80;;
39860;SDS011;25529;49.346;20.886;2024-01-10T05:57:52;109.53;;;42.73;;
39860;SDS011;25529;49.346;20.886;2024-01-10T06:00:17;108.77;;;41.93;;
39860;SDS011;25529;49.346;20.886;2024-01-10T06:02:43;106.33;;;42.03;;
39860;SDS011;25529;49.346;20.886;2024-01-10T06:05:08;105.47;;;41.40;;
39860;SDS011;25529;49.346;20.886;2024-01-10T06:07:38;319.63;;;105.60;;
39860;SDS011;25529;49.346;20.886;2024-01-10T06:10:05;212.57;;;93.93;;
39860;SDS011;25529;49.346;20.886;2024-01-10T06:12:30;158.23;;;69.60;;
39860;SDS011;25529;49.346;20.886;2024-01-10T06:14:56;108.70;;;43.50;;
39860;SDS011;25529;49.346;20.886;2024-01-10T06:17:22;100.90;;;41.40;;
39860;SDS011;25529;49.346;20.886;2024-01-10T06:19:48;115.43;;;44.03;;
39860;SDS011;25529;49.346;20.886;2024-01-10T06:22:13;118.53;;;44.70;;
39860;SDS011;25529;49.346;20.886;2024-01-10T06:24:39;109.77;;;42.40;;
39860;SDS011;25529;49.346;20.886;2024-01-10T06:27:06;105.20;;;43.53;;
39860;SDS011;25529;49.346;20.886;2024-01-10T06:29:32;116.50;;;47.47;;
39860;SDS011;25529;49.346;20.886;2024-01-10T06:31:59;127.53;;;48.23;;
39860;SDS011;25529;49.346;20.886;2024-01-10T06:34:26;125.70;;;52.53;;
39860;SDS011;25529;49.346;20.886;2024-01-10T06:36:54;147.83;;;57.07;;
39860;SDS011;25529;49.346;20.886;2024-01-10T06:45:26;130.32;;;53.05;;
39860;SDS011;25529;49.346;20.886;2024-01-10T06:50:32;136.87;;;56.07;;
39860;SDS011;25529;49.346;20.886;2024-01-10T06:52:58;124.43;;;50.30;;
39860;SDS011;25529;49.346;20.886;2024-01-10T06:58:08;117.03;;;47.97;;
39860;SDS011;25529;49.346;20.886;2024-01-10T07:00:34;128.13;;;50.40;;
39860;SDS011;25529;49.346;20.886;2024-01-10T07:03:03;121.23;;;47.90;;
39860;SDS011;25529;49.346;20.886;2024-01-10T07:05:28;114.47;;;46.03;;
39860;SDS011;25529;49.346;20.886;2024-01-10T07:07:54;109.40;;;44.60;;
39860;SDS011;25529;49.346;20.886;2024-01-10T07:10:19;106.20;;;44.37;;
39860;SDS011;25529;49.346;20.886;2024-01-10T07:12:44;107.43;;;45.73;;
39860;SDS011;25529;49.346;20.886;2024-01-10T07:15:10;124.30;;;47.10;;
39860;SDS011;25529;49.346;20.886;2024-01-10T07:17:36;105.37;;;43.17;;
39860;SDS011;25529;49.346;20.886;2024-01-10T07:20:02;108.37;;;43.90;;
39860;SDS011;25529;49.346;20.886;2024-01-10T07:22:28;107.80;;;44.27;;
39860;SDS011;25529;49.346;20.886;2024-01-10T07:24:53;147.00;;;70.47;;
39860;SDS011;25529;49.346;20.886;2024-01-10T07:27:19;111.20;;;45.07;;
39860;SDS011;25529;49.346;20.886;2024-01-10T07:29:45;105.83;;;41.13;;
39860;SDS011;25529;49.346;20.886;2024-01-10T07:32:11;94.13;;;37.30;;
39860;SDS011;25529;49.346;20.886;2024-01-10T07:34:39;104.47;;;40.13;;
39860;SDS011;25529;49.346;20.886;2024-01-10T07:37:05;94.07;;;37.33;;
39860;SDS011;25529;49.346;20.886;2024-01-10T07:39:31;91.70;;;37.30;;
39860;SDS011;25529;49.346;20.886;2024-01-10T07:45:06;97.20;;;37.90;;
39860;SDS011;25529;49.346;20.886;2024-01-10T07:47:33;85.13;;;35.83;;
39860;SDS011;25529;49.346;20.886;2024-01-10T07:50:05;94.65;;;36.47;;
39860;SDS011;25529;49.346;20.886;2024-01-10T07:52:32;88.03;;;36.27;;
39860;SDS011;25529;49.346;20.886;2024-01-10T07:58:01;81.63;;;32.10;;
39860;SDS011;25529;49.346;20.886;2024-01-10T08:00:36;79.53;;;32.80;;
39860;SDS011;25529;49.346;20.886;2024-01-10T08:03:05;90.97;;;36.67;;
39860;SDS011;25529;49.346;20.886;2024-01-10T08:05:32;76.77;;;29.70;;
39860;SDS011;25529;49.346;20.886;2024-01-10T08:08:00;75.07;;;27.10;;
39860;SDS011;25529;49.346;20.886;2024-01-10T08:10:26;72.10;;;28.20;;
39860;SDS011;25529;49.346;20.886;2024-01-10T08:12:52;76.10;;;29.53;;
39860;SDS011;25529;49.346;20.886;2024-01-10T08:15:18;84.13;;;32.23;;
39860;SDS011;25529;49.346;20.886;2024-01-10T08:17:44;93.07;;;36.27;;
39860;SDS011;25529;49.346;20.886;2024-01-10T08:20:10;90.37;;;35.60;;
39860;SDS011;25529;49.346;20.886;2024-01-10T08:22:36;93.83;;;37.27;;
39860;SDS011;25529;49.346;20.886;2024-01-10T08:25:01;82.23;;;33.77;;
39860;SDS011;25529;49.346;20.886;2024-01-10T08:27:27;79.87;;;32.53;;
39860;SDS011;25529;49.346;20.886;2024-01-10T08:29:53;78.83;;;31.73;;
39860;SDS011;25529;49.346;20.886;2024-01-10T08:32:20;80.47;;;32.13;;
39860;SDS011;25529;49.346;20.886;2024-01-10T08:34:47;91.77;;;35.30;;
39860;SDS011;25529;49.346;20.886;2024-01-10T08:37:13;88.77;;;37.23;;
39860;SDS011;25529;49.346;20.886;2024-01-10T08:39:39;93.00;;;40.33;;
39860;SDS011;25529;49.346;20.886;2024-01-10T08:42:04;109.07;;;44.83;;
39860;SDS011;25529;49.346;20.886;2024-01-10T08:44:30;113.77;;;46.17;;
39860;SDS011;25529;49.346;20.886;2024-01-10T08:46:56;117.87;;;46.10;;
39860;SDS011;25529;49.346;20.886;2024-01-10T08:49:22;102.60;;;47.73;;
39860;SDS011;25529;49.346;20.886;2024-01-10T08:51:47;119.47;;;49.50;;
39860;SDS011;25529;49.346;20.886;2024-01-10T08:54:13;113.50;;;46.10;;
39860;SDS011;25529;49.346;20.886;2024-01-10T08:56:44;117.73;;;48.70;;
39860;SDS011;25529;49.346;20.886;2024-01-10T08:59:13;115.73;;;48.23;;
39860;SDS011;25529;49.346;20.886;2024-01-10T09:01:38;115.73;;;47.30;;
39860;SDS011;25529;49.346;20.886;2024-01-10T09:04:04;113.10;;;44.73;;
39860;SDS011;25529;49.346;20.886;2024-01-10T09:06:29;111.17;;;45.67;;
39860;SDS011;25529;49.346;20.886;2024-01-10T09:08:56;101.77;;;44.93;;
39860;SDS011;25529;49.346;20.886;2024-01-10T09:11:22;135.20;;;55.27;;
39860;SDS011;25529;49.346;20.886;2024-01-10T09:13:47;98.30;;;40.93;;
39860;SDS011;25529;49.346;20.886;2024-01-10T09:16:14;93.50;;;39.07;;
39860;SDS011;25529;49.346;20.886;2024-01-10T09:18:39;94.20;;;38.47;;
39860;SDS011;25529;49.346;20.886;2024-01-10T09:21:08;91.57;;;38.60;;
39860;SDS011;25529;49.346;20.886;2024-01-10T09:23:33;89.27;;;37.10;;
39860;SDS011;25529;49.346;20.886;2024-01-10T09:29:03;93.93;;;37.70;;
39860;SDS011;25529;49.346;20.886;2024-01-10T09:31:32;83.43;;;36.10;;
39860;SDS011;25529;49.346;20.886;2024-01-10T09:33:57;85.50;;;35.83;;
39860;SDS011;25529;49.346;20.886;2024-01-10T09:36:23;81.37;;;35.73;;
39860;SDS011;25529;49.346;20.886;2024-01-10T09:38:48;80.77;;;35.43;;
39860;SDS011;25529;49.346;20.886;2024-01-10T09:41:14;77.60;;;33.07;;
39860;SDS011;25529;49.346;20.886;2024-01-10T09:43:40;71.93;;;32.17;;
39860;SDS011;25529;49.346;20.886;2024-01-10T09:46:06;76.60;;;33.10;;
39860;SDS011;25529;49.346;20.886;2024-01-10T10:03:39;73.73;;;31.60;;
39860;SDS011;25529;49.346;20.886;2024-01-10T10:06:07;75.60;;;32.37;;
39860;SDS011;25529;49.346;20.886;2024-01-10T10:11:36;76.30;;;32.58;;
39860;SDS011;25529;49.346;20.886;2024-01-10T10:17:17;76.55;;;31.02;;
39860;SDS011;25529;49.346;20.886;2024-01-10T10:26:26;70.40;;;29.07;;
39860;SDS011;25529;49.346;20.886;2024-01-10T10:32:26;69.00;;;28.63;;
39860;SDS011;25529;49.346;20.886;2024-01-10T10:37:54;70.40;;;29.95;;
39860;SDS011;25529;49.346;20.886;2024-01-10T10:43:22;73.68;;;31.00;;
39860;SDS011;25529;49.346;20.886;2024-01-10T10:48:50;58.50;;;23.53;;
39860;SDS011;25529;49.346;20.886;2024-01-10T10:54:18;56.03;;;25.20;;
39860;SDS011;25529;49.346;20.886;2024-01-10T10:59:48;72.30;;;31.80;;
39860;SDS011;25529;49.346;20.886;2024-01-10T11:05:17;55.00;;;24.10;;
39860;SDS011;25529;49.346;20.886;2024-01-10T11:10:45;78.78;;;34.58;;
39860;SDS011;25529;49.346;20.886;2024-01-10T11:21:48;77.67;;;37.27;;
39860;SDS011;25529;49.346;20.886;2024-01-10T11:27:36;78.13;;;35.13;;
39860;SDS011;25529;49.346;20.886;2024-01-10T11:38:56;71.25;;;30.95;;
39860;SDS011;25529;49.346;20.886;2024-01-10T11:44:25;60.07;;;26.80;;
39860;SDS011;25529;49.346;20.886;2024-01-10T11:47:04;61.93;;;27.43;;
39860;SDS011;25529;49.346;20.886;2024-01-10T11:49:30;66.03;;;27.83;;
39860;SDS011;25529;49.346;20.886;2024-01-10T11:54:58;66.32;;;27.00;;
39860;SDS011;25529;49.346;20.886;2024-01-10T12:00:26;57.10;;;24.58;;
39860;SDS011;25529;49.346;20.886;2024-01-10T12:05:55;56.83;;;24.07;;
39860;SDS011;25529;49.346;20.886;2024-01-10T12:11:23;55.05;;;23.50;;
39860;SDS011;25529;49.346;20.886;2024-01-10T12:16:51;55.13;;;22.92;;
39860;SDS011;25529;49.346;20.886;2024-01-10T12:19:20;56.77;;;23.60;;
39860;SDS011;25529;49.346;20.886;2024-01-10T12:31:32;54.40;;;23.20;;
39860;SDS011;25529;49.346;20.886;2024-01-10T12:36:55;58.07;;;24.70;;
39860;SDS011;25529;49.346;20.886;2024-01-10T12:39:20;60.27;;;25.03;;
39860;SDS011;25529;49.346;20.886;2024-01-10T12:41:48;59.13;;;24.10;;
39860;SDS011;25529;49.346;20.886;2024-01-10T12:44:15;54.47;;;23.07;;
39860;SDS011;25529;49.346;20.886;2024-01-10T12:46:50;52.47;;;22.40;;
39860;SDS011;25529;49.346;20.886;2024-01-10T12:49:16;55.00;;;23.83;;
39860;SDS011;25529;49.346;20.886;2024-01-10T12:54:44;54.43;;;23.23;;
39860;SDS011;25529;49.346;20.886;2024-01-10T12:57:10;47.77;;;20.90;;
39860;SDS011;25529;49.346;20.886;2024-01-10T12:59:35;46.97;;;20.27;;
39860;SDS011;25529;49.346;20.886;2024-01-10T13:02:01;55.47;;;20.97;;
39860;SDS011;25529;49.346;20.886;2024-01-10T13:04:27;47.33;;;20.50;;
39860;SDS011;25529;49.346;20.886;2024-01-10T13:09:55;55.15;;;23.33;;
39860;SDS011;25529;49.346;20.886;2024-01-10T13:12:21;53.10;;;24.33;;
39860;SDS011;25529;49.346;20.886;2024-01-10T13:20:52;54.50;;;22.35;;
39860;SDS011;25529;49.346;20.886;2024-01-10T13:26:20;42.78;;;18.08;;
39860;SDS011;25529;49.346;20.886;2024-01-10T13:34:26;38.13;;;16.27;;
39860;SDS011;25529;49.346;20.886;2024-01-10T13:36:51;48.93;;;20.77;;
39860;SDS011;25529;49.346;20.886;2024-01-10T13:39:17;48.77;;;21.67;;
39860;SDS011;25529;49.346;20.886;2024-01-10T13:41:43;52.43;;;23.67;;
39860;SDS011;25529;49.346;20.886;2024-01-10T13:44:09;50.80;;;22.63;;
39860;SDS011;25529;49.346;20.886;2024-01-10T13:49:37;54.30;;;23.63;;
39860;SDS011;25529;49.346;20.886;2024-01-10T13:55:05;95.43;;;48.88;;
39860;SDS011;25529;49.346;20.886;2024-01-10T13:57:31;124.07;;;66.97;;
39860;SDS011;25529;49.346;20.886;2024-01-10T13:59:59;130.27;;;72.37;;
39860;SDS011;25529;49.346;20.886;2024-01-10T14:05:27;79.93;;;35.27;;
39860;SDS011;25529;49.346;20.886;2024-01-10T14:10:56;70.53;;;33.03;;
39860;SDS011;25529;49.346;20.886;2024-01-10T14:19:27;58.92;;;26.73;;
39860;SDS011;25529;49.346;20.886;2024-01-10T14:24:55;60.67;;;27.30;;
39860;SDS011;25529;49.346;20.886;2024-01-10T14:27:20;56.93;;;27.30;;
39860;SDS011;25529;49.346;20.886;2024-01-10T14:29:46;58.57;;;26.67;;
39860;SDS011;25529;49.346;20.886;2024-01-10T14:35:14;71.80;;;33.50;;
39860;SDS011;25529;49.346;20.886;2024-01-10T14:40:42;80.82;;;38.88;;
39860;SDS011;25529;49.346;20.886;2024-01-10T14:46:10;85.88;;;38.28;;
39860;SDS011;25529;49.346;20.886;2024-01-10T14:54:28;71.27;;;34.77;;
39860;SDS011;25529;49.346;20.886;2024-01-10T14:59:56;65.85;;;33.17;;
39860;SDS011;25529;49.346;20.886;2024-01-10T15:05:24;62.67;;;27.38;;
39860;SDS011;25529;49.346;20.886;2024-01-10T15:10:54;65.00;;;30.13;;
39860;SDS011;25529;49.346;20.886;2024-01-10T15:16:23;66.17;;;28.83;;
39860;SDS011;25529;49.346;20.886;2024-01-10T15:21:51;57.37;;;26.73;;
39860;SDS011;25529;49.346;20.886;2024-01-10T15:30:23;52.90;;;23.13;;
39860;SDS011;25529;49.346;20.886;2024-01-10T15:35:51;57.07;;;25.30;;
39860;SDS011;25529;49.346;20.886;2024-01-10T15:41:20;55.67;;;24.20;;
39860;SDS011;25529;49.346;20.886;2024-01-10T15:46:50;65.35;;;25.98;;
39860;SDS011;25529;49.346;20.886;2024-01-10T15:52:18;68.30;;;27.00;;
39860;SDS011;25529;49.346;20.886;2024-01-10T15:57:54;68.37;;;26.63;;
39860;SDS011;25529;49.346;20.886;2024-01-10T16:03:23;57.80;;;25.35;;
39860;SDS011;25529;49.346;20.886;2024-01-10T16:08:52;64.70;;;28.25;;
39860;SDS011;25529;49.346;20.886;2024-01-10T16:14:21;65.75;;;27.88;;
39860;SDS011;25529;49.346;20.886;2024-01-10T16:19:50;73.03;;;29.95;;
39860;SDS011;25529;49.346;20.886;2024-01-10T16:27:53;71.40;;;30.73;;
39860;SDS011;25529;49.346;20.886;2024-01-10T16:33:22;72.57;;;30.80;;
39860;SDS011;25529;49.346;20.886;2024-01-10T16:38:50;71.80;;;32.33;;
39860;SDS011;25529;49.346;20.886;2024-01-10T16:43:58;77.23;;;33.87;;
39860;SDS011;25529;49.346;20.886;2024-01-10T16:46:24;75.93;;;33.47;;
39860;SDS011;25529;49.346;20.886;2024-01-10T16:48:49;82.10;;;35.33;;
39860;SDS011;25529;49.346;20.886;2024-01-10T16:54:18;83.43;;;35.13;;
39860;SDS011;25529;49.346;20.886;2024-01-10T16:59:31;70.70;;;31.17;;
39860;SDS011;25529;49.346;20.886;2024-01-10T17:04:47;70.17;;;31.17;;
39860;SDS011;25529;49.346;20.886;2024-01-10T17:07:13;91.03;;;40.53;;
39860;SDS011;25529;49.346;20.886;2024-01-10T17:12:41;91.43;;;44.10;;
39860;SDS011;25529;49.346;20.886;2024-01-10T17:17:55;92.37;;;42.60;;
39860;SDS011;25529;49.346;20.886;2024-01-10T17:35:20;124.13;;;56.35;;
39860;SDS011;25529;49.346;20.886;2024-01-10T17:40:52;100.63;;;48.57;;
39860;SDS011;25529;49.346;20.886;2024-01-10T17:46:23;135.32;;;67.85;;
39860;SDS011;25529;49.346;20.886;2024-01-10T17:51:51;127.80;;;59.72;;
39860;SDS011;25529;49.346;20.886;2024-01-10T18:00:24;115.97;;;52.38;;
39860;SDS011;25529;49.346;20.886;2024-01-10T18:02:57;106.07;;;50.77;;
39860;SDS011;25529;49.346;20.886;2024-01-10T18:05:23;106.57;;;48.77;;
39860;SDS011;25529;49.346;20.886;2024-01-10T18:07:48;137.63;;;62.57;;
39860;SDS011;25529;49.346;20.886;2024-01-10T18:13:20;130.43;;;59.97;;
39860;SDS011;25529;49.346;20.886;2024-01-10T18:18:56;125.03;;;58.40;;
39860;SDS011;25529;49.346;20.886;2024-01-10T18:30:44;114.00;;;50.70;;
39860;SDS011;25529;49.346;20.886;2024-01-10T18:33:09;118.87;;;54.43;;
39860;SDS011;25529;49.346;20.886;2024-01-10T18:41:42;112.45;;;51.20;;
39860;SDS011;25529;49.346;20.886;2024-01-10T18:50:51;112.25;;;50.97;;
39860;SDS011;25529;49.346;20.886;2024-01-10T19:00:51;159.97;;;73.60;;
39860;SDS011;25529;49.346;20.886;2024-01-10T19:03:17;147.80;;;66.07;;
39860;SDS011;25529;49.346;20.886;2024-01-10T19:05:44;166.33;;;78.13;;
39860;SDS011;25529;49.346;20.886;2024-01-10T19:08:14;159.10;;;75.83;;
39860;SDS011;25529;49.346;20.886;2024-01-10T19:10:52;160.27;;;70.70;;
39860;SDS011;25529;49.346;20.886;2024-01-10T19:13:17;165.13;;;75.27;;
39860;SDS011;25529;49.346;20.886;2024-01-10T19:15:43;164.70;;;80.40;;
39860;SDS011;25529;49.346;20.886;2024-01-10T19:18:11;176.47;;;76.23;;
39860;SDS011;25529;49.346;20.886;2024-01-10T19:20:46;158.33;;;73.17;;